Impacts TAF Board INFO
FOR SITUATIONAL AWARENESS. NOT TO BE USED FOR FLIGHT PLANNING PURPOSES.
IDs:

KDTW - Detroit Metro/Wayne, MI, US

Issued at 2324 UTC 24 Feb 2018
Updated at 0139 UTC 25 Feb 2018
Potential Impact None Slight Moderate High
Time0053Z 25/02Z 25/03Z 25/04Z 25/05Z 25/06Z 25/07Z 25/08Z 25/09Z 25/10Z 25/11Z 25/12Z 25/13Z 25/14Z>>
Type OBS PRVL PRVL PRVL PRVL PRVL PRVL PRVL PRVL PRVL PRVL PRVL PRVL PRVL
VIS 10 >6 2 2 2 2 1 1 1 >6 >6 >6 >6 >6
CIG 15 20 7 7 7 7 5 5 5 25 25 25 25 25
Cover OVC OVC OVC OVC OVC OVC OVC OVC OVC BKN BKN BKN BKN BKN
FltCat MVFR MVFR IFR IFR IFR IFR IFR IFR IFR MVFR MVFR MVFR MVFR MVFR
WX -- -- RA BR RA BR RA BR RA BR RA BR RA BR RA BR -- -- -- -- --
WDir 90 70 130 130 130 130 130 130 130 250 250 250 250 250
WSpd 10 12 15 15 15 15 15 15 15 20 20 20 20 20
WGst -- -- -- -- -- -- -- -- -- 35 35 35 35 35

Raw TAF
KDTW 242324Z 2500/2606 07012KT P6SM OVC020
  FM250300 13015KT 2SM RA BR OVC007
  FM250700 13015KT 1SM RA BR OVC005 WS007/19045KT
  FM251000 25020G35KT P6SM SCT018 BKN025
  FM251500 24020G30KT P6SM BKN025
  FM252200 24015G25KT P6SM SCT035


Raw METAR
KDTW 250053Z 09010KT 10SM OVC015 03/M01 A3001 RMK AO2 SLP166 T00331006 $
KDTW 242353Z 09009KT 10SM OVC020 04/01 A3005 RMK AO2 SLP180 T00440006 10050 20039 56017 $
KDTW 242253Z 07009KT 10SM OVC020 04/00 A3006 RMK AO2 SLP183 T00440000 $

METAR Board
Radar Display
Forecast Discussion

FOR SITUATIONAL AWARENESS. NOT TO BE USED FOR FLIGHT PLANNING PURPOSES.